WetterOnline ( http://www.wetteronline.de )

Wetter aktuell Bersteland

Aktuelles Wetter: Baruth (55m)

6-stündlich | Neueste Meldungen
Ortszeit Temperatur Wetter
Di, 26.03. 19:00 6.3° C wolkig
Di, 26.03. 13:00 8.3° C bedeckt
Di, 26.03. 7:00 1.8° C leicht bewölkt
Di, 26.03. 1:00 0.5° C wolkenlos
Mo, 25.03. 19:00 3.0° C fast wolkenlos
Mo, 25.03. 13:00 6.6° C bewölkt
Mo, 25.03. 7:00 3.8° C bedeckt
Mo, 25.03. 1:00 -1.0° C wolkig
Ortszeit Temperatur Wetter
Di, 26.03. 22:30 4.7° C bedeckt
Di, 26.03. 22:20 4.7° C bedeckt
Di, 26.03. 22:10 4.8° C bedeckt
Di, 26.03. 22:00 5.2° C bedeckt
Di, 26.03. 21:50 5.2° C bedeckt
Di, 26.03. 21:40 5.1° C bedeckt
Di, 26.03. 21:30 5.3° C bewölkt
Di, 26.03. 21:00 5.4° C bedeckt
Di, 26.03. 20:30 5.6° C bewölkt
Di, 26.03. 20:00 5.9° C wolkig
Di, 26.03. 19:30 6.2° C bedeckt
Ortszeit Relative Feuchte Sichtweite
Di, 26.03. 19:00 79% 50 km
Di, 26.03. 13:00 62% 30 km
Di, 26.03. 7:00 92% 24 km
Di, 26.03. 1:00 95% 22 km
Mo, 25.03. 19:00 91% 60 km
Mo, 25.03. 13:00 71% 55 km
Mo, 25.03. 7:00 76% 30 km
Mo, 25.03. 1:00 92% 24 km
Ortszeit Relative Feuchte Sichtweite
Di, 26.03. 22:30 90% 35 km
Di, 26.03. 22:20 90% -
Di, 26.03. 22:10 90% -
Di, 26.03. 22:00 88% 40 km
Di, 26.03. 21:50 88% -
Di, 26.03. 21:40 88% -
Di, 26.03. 21:30 87% 40 km
Di, 26.03. 21:00 88% 45 km
Di, 26.03. 20:30 86% 45 km
Di, 26.03. 20:00 82% 45 km
Di, 26.03. 19:30 82% 45 km
Ortszeit Niederschlagsmenge Niederschlagsart
Di, 26.03. 19:00 0.2 l/m2 in 12 Std. Regen
Di, 26.03. 13:00 0.2 l/m2 in 6 Std. Regen
Di, 26.03. 7:00 0.0 l/m2 in 12 Std. -
Di, 26.03. 1:00 0.0 l/m2 in 6 Std. -
Mo, 25.03. 19:00 4 l/m2 in 12 Std. Regen
Mo, 25.03. 13:00 3 l/m2 in 6 Std. Schnee, Regen
Mo, 25.03. 7:00 0.0 l/m2 in 12 Std. -
Mo, 25.03. 1:00 0.0 l/m2 in 6 Std. -
Ortszeit Niederschlagsmenge Niederschlagsart
Di, 26.03. 22:30 0.0 l/m2 in 1 Std. -
Di, 26.03. 22:20 keine Meldung -
Di, 26.03. 22:10 keine Meldung -
Di, 26.03. 22:00 0.0 l/m2 in 1 Std. -
Di, 26.03. 21:50 keine Meldung -
Di, 26.03. 21:40 keine Meldung -
Di, 26.03. 21:30 0.0 l/m2 in 1 Std. -
Di, 26.03. 21:00 0.0 l/m2 in 1 Std. -
Di, 26.03. 20:30 0.0 l/m2 in 1 Std. -
Di, 26.03. 20:00 0.0 l/m2 in 1 Std. -
Di, 26.03. 19:30 0.0 l/m2 in 1 Std. -
Ortszeit Stärke Spitze Richtung
km/h Bft. km/h Grad Sektor
Di, 26.03. 19:00 14 3 54 290° W
Di, 26.03. 13:00 35 5 54 280° W
Di, 26.03. 7:00 14 3 22 270° W
Di, 26.03. 1:00 9 2 17 290° W
Mo, 25.03. 19:00 7 2 36 270° W
Mo, 25.03. 13:00 11 2 47 300° NW
Mo, 25.03. 7:00 14 3 25 240° SW
Mo, 25.03. 1:00 0 0 11 - -
Ortszeit Stärke Spitze Richtung
km/h Bft. km/h Grad Sektor
Di, 26.03. 22:30 9 2 15 280° W
Di, 26.03. 22:20 9 2 - 280° W
Di, 26.03. 22:10 11 2 - 280° W
Di, 26.03. 22:00 11 2 22 280° W
Di, 26.03. 21:50 11 2 - 280° W
Di, 26.03. 21:40 11 2 - 280° W
Di, 26.03. 21:30 11 2 22 280° W
Di, 26.03. 21:00 14 3 22 280° W
Di, 26.03. 20:30 14 3 22 280° W
Di, 26.03. 20:00 18 3 32 290° W
Di, 26.03. 19:30 22 4 32 280° W
Ortszeit Untergrenze Bedeckung Gattung
total tief tief mittel hoch
Di, 26.03. 19:00 960 m 8/8 1/8 - - -
Di, 26.03. 13:00 960 m 8/8 8/8 - - -
Di, 26.03. 7:00 360 m 3/8 3/8 - - -
Di, 26.03. 1:00 - 0/8 0/8 - - -
Mo, 25.03. 19:00 1200 m 1/8 1/8 - - -
Mo, 25.03. 13:00 720 m 7/8 7/8 - - -
Mo, 25.03. 7:00 1440 m 8/8 8/8 - - -
Mo, 25.03. 1:00 1440 m 6/8 6/8 - - -
Ortszeit Bedeckungsgrad in Achtel und Wolkenuntergrenze
Di, 26.03. 22:30 8(2700m) 8(5400m)
Di, 26.03. 22:20 8(2700m) 8(5400m)
Di, 26.03. 22:10 1(1800m) 8(2700m) 8(3600m)
Di, 26.03. 22:00 5(1800m) 8(2700m) 8(3600m)
Di, 26.03. 21:50 5(1800m) 8(2700m) 8(3600m)
Di, 26.03. 21:40 4(1800m) 8(2700m)
Di, 26.03. 21:30 6(1500m) 8(3000m)
Di, 26.03. 21:00 8(1500m) 8(3300m)
Di, 26.03. 20:30 2(1380m) 6(1500m) 8(3300m)
Di, 26.03. 20:00 3(1800m) 8(3600m) 8(4500m)
Di, 26.03. 19:30 8(1800m) 8(4500m)
Ortszeit Luftdruck NN (hPa) Tendenz (hPa in 3 Std.)
Di, 26.03. 19:00 1024 + 0,9
Di, 26.03. 13:00 1023 - 0,6
Di, 26.03. 7:00 1024 + 0,2
Di, 26.03. 1:00 1024 + 2,3
Mo, 25.03. 19:00 1018 + 2,6
Mo, 25.03. 13:00 1014 + 0,3
Mo, 25.03. 7:00 1013 - 2,8
Mo, 25.03. 1:00 1019 - 1,6
Ortszeit Luftdruck NN (hPa) Tendenz (hPa in 3 Std.)
Di, 26.03. 22:30 1027 + 2,0
Di, 26.03. 22:20 1027 keine Meldung
Di, 26.03. 22:10 1027 keine Meldung
Di, 26.03. 22:00 1027 + 2,3
Di, 26.03. 21:50 1027 keine Meldung
Di, 26.03. 21:40 1027 keine Meldung
Di, 26.03. 21:30 1026 + 2,2
Di, 26.03. 21:00 1026 + 2,2
Di, 26.03. 20:30 1025 + 1,8
Di, 26.03. 20:00 1025 + 1,4
Di, 26.03. 19:30 1025 + 1,3
Ortszeit Schneehöhe (cm)
Di, 26.03. 19:00 0
Di, 26.03. 13:00 0
Di, 26.03. 7:00 0
Di, 26.03. 1:00 0
Mo, 25.03. 19:00 0
Mo, 25.03. 13:00 0
Mo, 25.03. 7:00 0
Mo, 25.03. 1:00 0
Ortszeit Schneehöhe (cm)
Di, 26.03. 22:30 0
Di, 26.03. 22:20 0
Di, 26.03. 22:10 0
Di, 26.03. 22:00 0
Di, 26.03. 21:50 0
Di, 26.03. 21:40 0
Di, 26.03. 21:30 0
Di, 26.03. 21:00 0
Di, 26.03. 20:30 0
Di, 26.03. 20:00 0
Di, 26.03. 19:30 0
Link zu dieser Seite / Seite empfehlen

Das Wetter in ...